createdAt,value
2024-05-09T00:00:39.833Z,12.63
2024-05-09T00:03:08.595Z,12.87
2024-05-09T00:05:37.012Z,12.40
2024-05-09T00:08:04.498Z,12.63
2024-05-09T00:10:36.492Z,13.10
2024-05-09T00:13:06.412Z,13.00
2024-05-09T00:15:34.092Z,11.97
2024-05-09T00:18:01.753Z,13.67
2024-05-09T00:20:36.829Z,13.50
2024-05-09T00:23:07.666Z,13.00
2024-05-09T00:25:35.037Z,13.40
2024-05-09T00:28:02.008Z,11.87
2024-05-09T00:30:34.270Z,12.40
2024-05-09T00:33:05.026Z,13.83
2024-05-09T00:35:32.750Z,13.50
2024-05-09T00:37:59.797Z,17.37
2024-05-09T00:40:37.609Z,15.23
2024-05-09T00:43:07.278Z,16.27
2024-05-09T00:45:35.094Z,14.60
2024-05-09T00:48:06.487Z,15.63
2024-05-09T00:50:37.152Z,14.50
2024-05-09T00:53:06.641Z,14.33
2024-05-09T00:55:35.472Z,14.00
2024-05-09T00:58:03.241Z,15.30
2024-05-09T01:00:37.879Z,15.23
2024-05-09T01:03:07.786Z,14.30
2024-05-09T01:05:35.523Z,15.17
2024-05-09T01:08:03.180Z,14.70
2024-05-09T01:10:34.578Z,16.17
2024-05-09T01:13:07.276Z,17.27
2024-05-09T01:15:35.695Z,16.00
2024-05-09T01:18:07.152Z,17.30
2024-05-09T01:20:41.127Z,16.17
2024-05-09T01:23:11.275Z,15.63
2024-05-09T01:25:38.387Z,15.50
2024-05-09T01:28:05.985Z,16.20
2024-05-09T01:30:35.749Z,15.57
2024-05-09T01:33:09.649Z,16.50
2024-05-09T01:35:39.075Z,15.10
2024-05-09T01:38:06.732Z,15.20
2024-05-09T01:40:38.549Z,16.10
2024-05-09T01:43:08.017Z,16.37
2024-05-09T01:45:35.181Z,16.90
2024-05-09T01:48:02.684Z,19.30
2024-05-09T01:50:38.000Z,20.70
2024-05-09T01:53:09.332Z,18.40
2024-05-09T01:55:36.308Z,17.90
2024-05-09T01:58:03.052Z,19.20
2024-05-09T02:00:38.626Z,20.00
2024-05-09T02:03:15.336Z,17.93
2024-05-09T02:05:49.617Z,19.17
2024-05-09T02:08:21.700Z,17.90
2024-05-09T02:10:50.048Z,18.67
2024-05-09T02:13:17.267Z,18.40
2024-05-09T02:15:44.340Z,18.50
2024-05-09T02:18:11.739Z,18.13
2024-05-09T02:20:39.796Z,19.07
2024-05-09T02:23:07.150Z,17.80
2024-05-09T02:25:34.614Z,16.83
2024-05-09T02:28:01.487Z,17.50
2024-05-09T02:32:57.890Z,16.50
2024-05-09T02:35:25.108Z,16.33
2024-05-09T02:37:52.088Z,17.50
2024-05-09T02:40:25.831Z,17.47
2024-05-09T02:43:00.985Z,16.77
2024-05-09T02:45:27.653Z,18.20
2024-05-09T02:47:54.689Z,18.87
2024-05-09T02:50:29.761Z,19.20
2024-05-09T02:53:03.639Z,18.80
2024-05-09T02:55:30.302Z,17.90
2024-05-09T02:57:56.943Z,19.43
2024-05-09T03:00:29.812Z,19.23
2024-05-09T03:03:05.081Z,18.83
2024-05-09T03:05:32.114Z,18.20
2024-05-09T03:07:58.917Z,17.90
2024-05-09T03:10:28.742Z,20.87
2024-05-09T03:12:59.077Z,21.30
2024-05-09T03:15:25.732Z,20.50
2024-05-09T03:17:52.672Z,20.27
2024-05-09T03:20:23.941Z,20.47
2024-05-09T03:22:56.752Z,19.70
2024-05-09T03:25:23.714Z,20.67
2024-05-09T03:27:50.373Z,19.43
2024-05-09T03:30:29.177Z,19.30
2024-05-09T03:33:02.970Z,19.30
2024-05-09T03:35:29.908Z,19.80
2024-05-09T03:37:56.701Z,20.00
2024-05-09T03:40:26.600Z,20.10
2024-05-09T03:42:55.858Z,19.50
2024-05-09T03:45:22.548Z,17.33
2024-05-09T03:47:49.617Z,19.20
2024-05-09T03:50:22.738Z,16.50
2024-05-09T03:52:56.452Z,15.80
2024-05-09T03:55:23.131Z,17.63
2024-05-09T03:57:49.927Z,15.93
2024-05-09T04:00:22.537Z,15.30
2024-05-09T04:02:59.424Z,16.50
2024-05-09T04:05:26.360Z,17.97
2024-05-09T04:07:53.178Z,17.30
2024-05-09T04:10:27.724Z,15.80
2024-05-09T04:12:59.327Z,16.73
2024-05-09T04:15:26.389Z,16.10
2024-05-09T04:17:53.287Z,16.90
2024-05-09T04:20:29.330Z,16.00
2024-05-09T04:23:04.438Z,17.50
2024-05-09T04:25:32.075Z,16.40
2024-05-09T04:27:58.777Z,15.93
2024-05-09T04:30:34.611Z,15.30
2024-05-09T04:33:06.440Z,16.83
2024-05-09T04:35:34.176Z,15.53
2024-05-09T04:38:01.163Z,16.30
2024-05-09T04:40:33.390Z,17.70
2024-05-09T04:43:03.683Z,17.87
2024-05-09T04:45:30.602Z,18.03
2024-05-09T04:47:57.867Z,16.00
2024-05-09T04:50:33.211Z,18.50
2024-05-09T04:53:04.380Z,17.73
2024-05-09T04:55:31.704Z,18.00
2024-05-09T04:57:58.462Z,17.20
2024-05-09T05:00:32.582Z,17.70
2024-05-09T05:03:10.281Z,18.27
2024-05-09T05:05:42.788Z,18.30
2024-05-09T05:08:14.268Z,17.97
2024-05-09T05:10:42.215Z,16.60
2024-05-09T05:13:22.722Z,17.27
2024-05-09T05:15:57.220Z,18.17
2024-05-09T05:18:26.199Z,18.97
2024-05-09T05:20:53.422Z,23.03
2024-05-09T05:23:21.593Z,21.77
2024-05-09T05:25:53.427Z,20.30
2024-05-09T05:28:24.172Z,20.67
2024-05-09T05:30:51.066Z,19.70
2024-05-09T05:33:22.985Z,19.20
2024-05-09T05:35:50.208Z,19.93
2024-05-09T05:38:17.430Z,20.87
2024-05-09T05:40:44.415Z,21.70
2024-05-09T05:43:17.721Z,22.13
2024-05-09T05:45:45.069Z,23.40
2024-05-09T05:48:13.491Z,23.53
2024-05-09T05:50:40.370Z,23.90
2024-05-09T05:53:08.221Z,25.07
2024-05-09T05:55:36.750Z,25.80
2024-05-09T05:58:03.786Z,27.57
2024-05-09T06:00:38.078Z,26.47
2024-05-09T06:03:07.698Z,28.83
2024-05-09T06:05:36.661Z,29.13
2024-05-09T06:08:03.612Z,30.57
2024-05-09T06:10:37.682Z,29.50
2024-05-09T06:13:07.531Z,31.03
2024-05-09T06:15:34.364Z,30.77
2024-05-09T06:18:01.686Z,30.60
2024-05-09T06:20:35.552Z,31.80
2024-05-09T06:23:07.797Z,34.10
2024-05-09T06:25:35.758Z,35.77
2024-05-09T06:28:03.086Z,36.17
2024-05-09T06:30:37.473Z,39.27
2024-05-09T06:33:07.978Z,38.00
2024-05-09T06:35:35.431Z,38.87
2024-05-09T06:38:02.526Z,38.63
2024-05-09T06:40:36.386Z,39.63
2024-05-09T06:43:10.540Z,38.67
2024-05-09T06:45:37.383Z,40.10
2024-05-09T06:48:04.490Z,56.83
2024-05-09T06:50:36.793Z,48.63
2024-05-09T06:53:05.338Z,42.70
2024-05-09T06:55:32.123Z,40.07
2024-05-09T06:57:58.854Z,38.90
2024-05-09T07:00:34.446Z,38.67
2024-05-09T07:03:17.144Z,39.13
2024-05-09T07:05:47.218Z,38.00
2024-05-09T07:08:15.317Z,39.87
2024-05-09T07:10:42.129Z,38.70
2024-05-09T07:13:13.014Z,41.97
2024-05-09T07:15:41.148Z,37.87
2024-05-09T07:18:21.517Z,39.37
2024-05-09T07:20:49.722Z,39.60
2024-05-09T07:23:19.863Z,40.73
2024-05-09T07:25:46.803Z,40.23
2024-05-09T07:28:15.211Z,39.97
2024-05-09T07:30:42.758Z,42.60
2024-05-09T07:33:09.940Z,39.50
2024-05-09T07:35:36.887Z,41.00
2024-05-09T07:38:03.864Z,41.37
2024-05-09T07:40:35.915Z,41.77
2024-05-09T07:43:08.402Z,38.30
2024-05-09T07:52:32.641Z,42.90
2024-05-09T07:55:53.858Z,41.80
2024-05-09T07:58:20.729Z,39.40
2024-05-09T08:00:47.514Z,38.60
2024-05-09T08:03:14.320Z,41.77
2024-05-09T08:05:41.283Z,41.20
2024-05-09T08:08:08.188Z,38.60
2024-05-09T08:10:35.282Z,37.00
2024-05-09T08:13:02.116Z,35.80
2024-05-09T08:15:28.985Z,38.00
2024-05-09T08:17:56.007Z,37.30
2024-05-09T08:20:30.683Z,36.23
2024-05-09T08:23:00.452Z,38.30
2024-05-09T08:25:27.324Z,35.30
2024-05-09T08:27:54.106Z,34.43
2024-05-09T08:30:25.471Z,33.90
2024-05-09T08:32:59.486Z,35.47
2024-05-09T08:35:26.314Z,35.87
2024-05-09T08:37:53.634Z,32.43
2024-05-09T08:40:30.430Z,32.80
2024-05-09T08:43:02.609Z,33.27
2024-05-09T08:45:30.335Z,32.20
2024-05-09T08:48:01.509Z,33.53
2024-05-09T08:50:35.951Z,32.30
2024-05-09T08:53:05.926Z,31.03
2024-05-09T08:55:32.861Z,29.40
2024-05-09T08:58:03.111Z,30.70
2024-05-09T09:00:36.824Z,29.53
2024-05-09T09:03:07.692Z,27.57
2024-05-09T09:05:39.007Z,26.90
2024-05-09T09:08:07.930Z,28.87
2024-05-09T09:10:35.765Z,27.67
2024-05-09T09:13:04.744Z,26.60
2024-05-09T09:15:32.273Z,25.33
2024-05-09T09:18:00.906Z,25.30
2024-05-09T09:20:35.690Z,25.90
2024-05-09T09:23:04.740Z,23.53
2024-05-09T09:25:31.923Z,27.23
2024-05-09T09:27:58.919Z,25.77
2024-05-09T09:30:36.354Z,27.07
2024-05-09T09:33:06.093Z,25.73
2024-05-09T09:35:33.072Z,25.23
2024-05-09T09:38:03.177Z,25.97
2024-05-09T09:40:37.588Z,24.00
2024-05-09T09:43:14.857Z,22.57
2024-05-09T09:45:44.156Z,22.00
2024-05-09T09:48:14.638Z,22.37
2024-05-09T09:50:42.534Z,20.83
2024-05-09T09:53:10.319Z,22.67
2024-05-09T09:55:37.870Z,24.70
2024-05-09T09:58:06.392Z,24.73
2024-05-09T10:00:34.545Z,25.60
2024-05-09T10:03:02.053Z,23.17
2024-05-09T10:05:30.130Z,23.90
2024-05-09T10:07:58.632Z,21.50
2024-05-09T10:10:32.131Z,16.00
2024-05-09T10:13:04.049Z,16.33
2024-05-09T10:15:42.984Z,16.03
2024-05-09T10:18:09.930Z,15.27
2024-05-09T10:20:49.367Z,14.50
2024-05-09T10:23:29.946Z,14.00
2024-05-09T10:26:05.302Z,12.93
2024-05-09T10:28:34.176Z,13.20
2024-05-09T10:31:12.865Z,14.80
2024-05-09T10:33:48.146Z,14.27
2024-05-09T10:36:28.889Z,15.77
2024-05-09T10:38:55.899Z,16.33
2024-05-09T10:41:23.521Z,15.50
2024-05-09T10:43:51.044Z,16.53
2024-05-09T10:46:21.411Z,14.30
2024-05-09T10:48:48.825Z,15.53
2024-05-09T10:51:17.084Z,14.53
2024-05-09T10:53:45.315Z,13.77
2024-05-09T10:56:14.302Z,12.07
2024-05-09T10:58:41.034Z,13.53
2024-05-09T11:01:09.224Z,13.40
2024-05-09T11:03:37.012Z,14.10
2024-05-09T11:06:04.281Z,12.63
2024-05-09T11:08:32.322Z,12.23
2024-05-09T11:10:59.976Z,13.83
2024-05-09T11:13:31.620Z,14.17
2024-05-09T11:16:02.987Z,12.47
2024-05-09T11:18:35.125Z,13.40
2024-05-09T11:21:14.626Z,13.23
2024-05-09T11:23:41.617Z,13.00
2024-05-09T11:26:09.974Z,13.37
2024-05-09T11:28:36.814Z,13.90
2024-05-09T11:31:09.463Z,13.13
2024-05-09T11:33:38.768Z,13.87
2024-05-09T11:36:07.260Z,13.03
2024-05-09T11:38:34.283Z,14.73
2024-05-09T11:41:02.350Z,13.50
2024-05-09T11:43:32.151Z,13.70
2024-05-09T11:45:59.844Z,13.00
2024-05-09T11:48:27.189Z,13.13
2024-05-09T11:50:55.312Z,12.53
2024-05-09T11:53:22.267Z,13.60
2024-05-09T11:55:48.990Z,11.77
2024-05-09T11:58:18.198Z,11.80
2024-05-09T12:00:46.261Z,11.50
2024-05-09T12:03:13.320Z,11.37
2024-05-09T12:05:40.402Z,10.90
2024-05-09T12:08:07.613Z,11.17
2024-05-09T12:10:36.108Z,11.33
2024-05-09T12:13:05.843Z,10.40
2024-05-09T12:15:36.872Z,12.13
2024-05-09T12:18:04.893Z,11.83
2024-05-09T12:20:37.566Z,13.67
2024-05-09T12:23:07.860Z,12.80
2024-05-09T12:25:35.879Z,11.50
2024-05-09T12:28:02.833Z,11.57
2024-05-09T12:30:36.376Z,10.57
2024-05-09T12:33:08.095Z,10.10
2024-05-09T12:35:34.989Z,10.00
2024-05-09T12:38:01.695Z,10.10
2024-05-09T12:40:35.635Z,9.47
2024-05-09T12:43:06.512Z,9.63
2024-05-09T12:45:33.686Z,10.43
2024-05-09T12:48:01.028Z,9.70
2024-05-09T12:50:32.240Z,9.30
2024-05-09T12:53:01.343Z,7.97
2024-05-09T12:55:29.860Z,8.07
2024-05-09T12:57:59.052Z,7.87
2024-05-09T13:00:31.686Z,8.47
2024-05-09T13:03:01.219Z,9.97
2024-05-09T13:05:28.696Z,9.10
2024-05-09T13:07:56.845Z,8.47
2024-05-09T13:10:31.156Z,8.70
2024-05-09T13:13:01.048Z,9.00
2024-05-09T13:15:28.626Z,12.27
2024-05-09T13:17:58.334Z,11.30
2024-05-09T13:20:32.788Z,9.87
2024-05-09T13:23:03.055Z,11.20
2024-05-09T13:25:29.776Z,8.87
2024-05-09T13:27:57.304Z,9.93
2024-05-09T13:30:30.021Z,10.60
2024-05-09T13:33:06.557Z,12.23
2024-05-09T13:35:35.419Z,11.20
2024-05-09T13:38:03.742Z,15.40
2024-05-09T13:40:34.493Z,15.33
2024-05-09T13:43:06.050Z,14.63
2024-05-09T13:45:33.870Z,12.47
2024-05-09T13:48:02.367Z,12.00
2024-05-09T13:50:35.726Z,10.90
2024-05-09T13:53:06.197Z,10.63
2024-05-09T13:55:34.194Z,9.87
2024-05-09T13:58:01.886Z,10.53
2024-05-09T14:00:41.796Z,10.17
2024-05-09T14:03:14.251Z,10.30
2024-05-09T14:05:41.478Z,10.90
2024-05-09T14:08:08.788Z,9.27
2024-05-09T14:10:35.711Z,9.60
2024-05-09T14:13:02.575Z,9.67
2024-05-09T14:15:29.517Z,11.03
2024-05-09T14:17:56.286Z,8.80
2024-05-09T14:20:30.272Z,9.97
2024-05-09T14:22:59.482Z,10.30
2024-05-09T14:25:32.738Z,9.10
2024-05-09T14:28:00.563Z,11.37
2024-05-09T14:30:34.825Z,12.30
2024-05-09T14:33:06.068Z,11.57
2024-05-09T14:35:33.651Z,12.67
2024-05-09T14:38:00.536Z,11.20
2024-05-09T14:40:37.172Z,11.33
2024-05-09T14:43:10.273Z,12.60
2024-05-09T14:45:37.206Z,12.40
2024-05-09T14:48:04.465Z,15.23
2024-05-09T14:50:36.705Z,12.07
2024-05-09T14:53:10.070Z,12.43
2024-05-09T14:55:39.064Z,13.73
2024-05-09T14:58:07.381Z,12.17
2024-05-09T15:00:41.682Z,12.37
2024-05-09T15:03:11.733Z,11.97
2024-05-09T15:05:38.806Z,13.07
2024-05-09T15:08:07.275Z,10.13
2024-05-09T15:10:36.265Z,10.40
2024-05-09T15:13:04.583Z,9.80
2024-05-09T15:15:31.788Z,9.63
2024-05-09T15:17:59.285Z,10.20
2024-05-09T15:20:33.471Z,11.40
2024-05-09T15:23:03.355Z,17.77
2024-05-09T15:25:30.540Z,14.40
2024-05-09T15:27:57.518Z,10.17
2024-05-09T15:30:30.466Z,11.17
2024-05-09T15:32:59.865Z,12.60
2024-05-09T15:35:26.708Z,22.93
2024-05-09T15:37:53.468Z,12.20
2024-05-09T15:40:30.456Z,10.50
2024-05-09T15:43:04.687Z,12.27
2024-05-09T15:45:31.976Z,13.03
2024-05-09T15:47:59.329Z,12.67
2024-05-09T15:50:35.780Z,13.57
2024-05-09T15:53:06.828Z,12.60
2024-05-09T15:55:34.806Z,16.53
2024-05-09T15:58:02.899Z,13.10
2024-05-09T16:00:37.428Z,16.17
2024-05-09T16:03:08.243Z,13.87
2024-05-09T16:05:35.244Z,15.67
2024-05-09T16:08:02.499Z,14.40
2024-05-09T16:10:32.861Z,13.57
2024-05-09T16:13:02.362Z,13.93
2024-05-09T16:15:29.900Z,13.90
2024-05-09T16:17:57.085Z,15.10
2024-05-09T16:22:54.507Z,13.60
2024-05-09T16:25:21.329Z,13.97
2024-05-09T16:27:48.447Z,15.57
2024-05-09T16:30:24.127Z,13.03
2024-05-09T16:32:55.170Z,13.63
2024-05-09T16:35:21.981Z,12.40
2024-05-09T16:37:49.160Z,13.70
2024-05-09T16:40:25.123Z,14.70
2024-05-09T16:43:08.326Z,12.37
2024-05-09T16:45:35.555Z,12.90
2024-05-09T16:48:02.949Z,12.77
2024-05-09T16:50:33.828Z,12.00
2024-05-09T16:53:02.863Z,12.03
2024-05-09T16:55:29.746Z,12.73
2024-05-09T16:57:57.554Z,11.40
2024-05-09T17:00:35.458Z,12.93
2024-05-09T17:03:09.446Z,11.77
2024-05-09T17:05:37.002Z,11.43
2024-05-09T17:08:04.235Z,12.73
2024-05-09T17:10:33.798Z,11.73
2024-05-09T17:13:03.424Z,11.70
2024-05-09T17:15:31.698Z,13.03
2024-05-09T17:17:58.540Z,10.80
2024-05-09T17:20:32.180Z,10.13
2024-05-09T17:23:02.547Z,10.20
2024-05-09T17:25:29.476Z,11.67
2024-05-09T17:27:56.894Z,10.73
2024-05-09T17:30:32.057Z,11.27
2024-05-09T17:33:05.118Z,10.00
2024-05-09T17:35:32.321Z,10.00
2024-05-09T17:37:59.859Z,9.87
2024-05-09T17:40:33.066Z,14.13
2024-05-09T17:43:03.399Z,9.60
2024-05-09T17:45:30.720Z,8.67
2024-05-09T17:47:58.360Z,21.93
2024-05-09T17:50:31.599Z,10.47
2024-05-09T17:53:02.692Z,14.63
2024-05-09T17:55:29.663Z,11.33
2024-05-09T17:57:56.816Z,8.90
2024-05-09T18:00:33.479Z,8.70
2024-05-09T18:03:06.409Z,7.87
2024-05-09T18:05:35.027Z,8.63
2024-05-09T18:08:02.047Z,8.10
2024-05-09T18:10:35.436Z,9.17
2024-05-09T18:13:06.131Z,8.13
2024-05-09T18:15:33.505Z,7.40
2024-05-09T18:18:01.621Z,9.07
2024-05-09T18:20:37.620Z,8.47
2024-05-09T18:23:09.980Z,7.90
2024-05-09T18:25:36.790Z,17.63
2024-05-09T18:28:03.868Z,11.07
2024-05-09T18:30:35.008Z,11.00
2024-05-09T18:33:05.430Z,8.70
2024-05-09T18:35:33.509Z,7.90
2024-05-09T18:38:00.683Z,8.03
2024-05-09T18:40:33.016Z,7.43
2024-05-09T18:43:04.654Z,7.03
2024-05-09T18:45:32.546Z,7.00
2024-05-09T18:47:59.828Z,8.20
2024-05-09T18:50:35.264Z,6.80
2024-05-09T18:53:11.166Z,7.33
2024-05-09T18:55:38.771Z,6.90
2024-05-09T18:58:05.655Z,6.60
2024-05-09T19:00:36.348Z,7.30
2024-05-09T19:03:11.720Z,6.60
2024-05-09T19:05:41.248Z,7.20
2024-05-09T19:08:08.806Z,6.60
2024-05-09T19:10:38.462Z,6.97
2024-05-09T19:13:09.329Z,7.60
2024-05-09T19:15:40.061Z,28.90
2024-05-09T19:18:07.755Z,45.23
2024-05-09T19:20:36.507Z,14.13
2024-05-09T19:23:05.888Z,6.97
2024-05-09T19:25:33.917Z,6.60
2024-05-09T19:28:01.230Z,6.83
2024-05-09T19:30:37.313Z,6.20
2024-05-09T19:33:09.470Z,7.20
2024-05-09T19:35:37.186Z,6.57
2024-05-09T19:38:04.373Z,6.53
2024-05-09T19:40:33.911Z,6.57
2024-05-09T19:43:02.868Z,6.53
2024-05-09T19:45:31.227Z,7.40
2024-05-09T19:47:58.611Z,6.23
2024-05-09T19:50:32.891Z,6.60
2024-05-09T19:53:08.584Z,6.53
2024-05-09T19:55:35.516Z,6.17
2024-05-09T19:58:05.392Z,6.03
2024-05-09T20:00:43.583Z,6.93
2024-05-09T20:03:12.970Z,6.00
2024-05-09T20:05:42.035Z,7.00
2024-05-09T20:08:09.142Z,6.77
2024-05-09T20:10:37.080Z,7.10
2024-05-09T20:13:06.606Z,7.10
2024-05-09T20:15:35.598Z,6.63
2024-05-09T20:18:02.781Z,6.83
2024-05-09T20:20:37.299Z,7.60
2024-05-09T20:23:08.226Z,7.87
2024-05-09T20:25:38.332Z,7.60
2024-05-09T20:28:06.175Z,7.07
2024-05-09T20:30:35.028Z,7.33
2024-05-09T20:33:04.825Z,7.13
2024-05-09T20:35:33.767Z,7.03
2024-05-09T20:38:02.556Z,7.90
2024-05-09T20:40:34.717Z,7.20
2024-05-09T20:43:05.829Z,8.20
2024-05-09T20:45:33.434Z,7.67
2024-05-09T20:48:01.446Z,6.90
2024-05-09T20:50:36.883Z,8.43
2024-05-09T20:53:12.590Z,10.00
2024-05-09T20:55:41.318Z,7.97
2024-05-09T20:58:08.878Z,7.43
2024-05-09T21:00:40.310Z,7.80
2024-05-09T21:03:11.715Z,7.60
2024-05-09T21:05:42.235Z,8.63
2024-05-09T21:08:09.198Z,8.07
2024-05-09T21:10:37.020Z,7.87
2024-05-09T21:13:05.104Z,7.10
2024-05-09T21:15:33.547Z,7.70
2024-05-09T21:18:00.423Z,7.77
2024-05-09T21:20:31.625Z,8.10
2024-05-09T21:23:00.396Z,9.37
2024-05-09T21:25:27.408Z,9.67
2024-05-09T21:27:55.040Z,13.43
2024-05-09T21:30:32.417Z,10.40
2024-05-09T21:33:14.807Z,9.20
2024-05-09T21:35:44.507Z,9.83
2024-05-09T21:38:13.908Z,10.73
2024-05-09T21:40:41.962Z,11.13
2024-05-09T21:43:09.153Z,10.90
2024-05-09T21:45:37.168Z,10.63
2024-05-09T21:48:05.186Z,10.30
2024-05-09T21:50:39.204Z,11.33
2024-05-09T21:53:08.485Z,12.07
2024-05-09T21:55:35.465Z,10.57
2024-05-09T21:58:03.142Z,10.30
2024-05-09T22:00:36.132Z,9.90
2024-05-09T22:03:09.315Z,10.67
2024-05-09T22:05:38.299Z,11.23
2024-05-09T22:08:05.910Z,12.43
2024-05-09T22:10:35.151Z,11.47
2024-05-09T22:13:05.339Z,11.83
2024-05-09T22:15:35.889Z,12.40
2024-05-09T22:18:03.865Z,11.80
2024-05-09T22:20:36.842Z,10.67
2024-05-09T22:23:05.986Z,11.20
2024-05-09T22:25:33.142Z,12.33
2024-05-09T22:28:01.382Z,11.60
2024-05-09T22:30:35.759Z,12.80
2024-05-09T22:33:07.796Z,13.53
2024-05-09T22:35:34.722Z,14.17
2024-05-09T22:38:05.451Z,13.87
2024-05-09T22:40:41.977Z,13.93
2024-05-09T22:43:17.155Z,14.47
2024-05-09T22:45:44.257Z,15.10
2024-05-09T22:48:11.177Z,14.60
2024-05-09T22:50:38.026Z,14.00
2024-05-09T22:53:05.602Z,14.30
2024-05-09T22:55:32.323Z,12.90
2024-05-09T22:57:58.985Z,12.83
2024-05-09T23:00:31.576Z,12.67
2024-05-09T23:03:02.945Z,11.93
2024-05-09T23:05:30.984Z,11.40
2024-05-09T23:07:57.860Z,11.17
2024-05-09T23:10:31.705Z,11.77
2024-05-09T23:13:03.028Z,12.17
2024-05-09T23:15:30.149Z,11.53
2024-05-09T23:17:57.964Z,12.93
2024-05-09T23:20:33.726Z,12.37
2024-05-09T23:23:05.762Z,13.37
2024-05-09T23:25:32.649Z,13.13
2024-05-09T23:27:59.470Z,13.33
2024-05-09T23:30:36.091Z,11.43
2024-05-09T23:33:06.658Z,13.00
2024-05-09T23:35:33.504Z,13.23
2024-05-09T23:38:00.306Z,11.60
2024-05-09T23:40:37.123Z,12.27
2024-05-09T23:43:07.484Z,12.43
2024-05-09T23:45:34.813Z,12.83
2024-05-09T23:48:01.908Z,11.50
2024-05-09T23:50:35.892Z,12.70
2024-05-09T23:53:06.937Z,11.87
2024-05-09T23:55:34.998Z,11.70
2024-05-09T23:58:01.725Z,12.70
